Accueil
METAR-TAF:

METAR-TAF

Aéroports :

Santander, Espagne

Aéroport de Santander

latitude: 43-26N, longitude: 003-49W, altitude: 6 m

Observation

Le bulletin a été fait il y a 33 minutes, à 22:30 UTC
Vent 5 kt de est, variant entre nord-est et sud-est
Température 19°C
Humidité 73%
Pression 1021 hPa
Visibilité: 8000 m

METAR: LEXJ 202230Z AUTO 09005KT 050V140 8000 NCD 19/14 Q1021

Heure: 01:03 (23:03 UTC)

Prévision

Le bulletin a été fait il y a 3 heures et 3 minutes, à 20:00 UTC
Prévision valable du 20 à 21 UTC au 21 à 21 UTC
Vent 5 kt de est
Visibilité 10 km ou plus
pas de nuages en-dessous de 1500 mètres et pas de cumulonimbus.
Evoluant progressivement
du 21 à 06 UTC au 21 à 10 UTC
Vent 15 kt de est/nord-est
Evoluant progressivement
du 21 à 18 UTC au 21 à 21 UTC
Vent 3 kt de direction variable

TAF: LEXJ 202000Z 2021/2121 10005KT CAVOK TX27/2115Z TN16/2102Z BECMG 2106/2110 07015KT BECMG 2118/2121 VRB03KT

Observations et prévisions météorologiques de plus de 4000 aéroports (messages METAR et TAF).

Les stations disponibles sont représentées par des disques jaunes et rouges sur la carte.

Passer la souris dessus pour voir le nom de la station.

Cliquer dessus pour voir les observations et prévisions météorologiques.

Pour changer de carte: cliquez sur les boutons verts avec une croix noire pour zoomer, sur le bouton vert avec un tiret pour effectuer un zoom arrière, ou sur les flèches vertes pour les cartes adjacentes.


METAR-TAF: